CheckWX is a tool to help pilots better visualize weather data.  It is not intended as a substitute for an official pre-flight weather briefing.

21:29:47 UTC

EFOU METAR
Oulu Airport
Oulu / Oulunsalo, Finland
Current

10 mins ago

EFOU 022120Z AUTO 12003KT 060V150 CAVOK 12/04 Q1003
Observed
Jul-2 @ 21:20 UTC
Wind
  • 120° at 3 KTS
Visibility
10,000+ meters
Flight Rules
VFR
Cloud Levels
  • Clear skies
Temperature
12°C / 54°F
Dewpoint
C / 39°F
Humidity
58%
Altimeter
29.62" Hg
Pressure
1002.92 hPa
Previous

40 mins ago

EFOU 022050Z AUTO 09002KT CAVOK 11/05 Q1003
Observed
Jul-2 @ 20:50 UTC
Wind
  • 090° at 2 KTS
Visibility
10,000+ meters
Flight Rules
VFR
Cloud Levels
  • Clear skies
Temperature
11°C / 52°F
Dewpoint
C / 41°F
Humidity
67%
Altimeter
29.62" Hg
Pressure
1002.92 hPa
Previous

1 hour ago

EFOU 022020Z AUTO VRB01KT CAVOK 12/05 Q1003
Observed
Jul-2 @ 20:20 UTC
Wind
  • Variable at 1 KTS
Visibility
10,000+ meters
Flight Rules
VFR
Cloud Levels
  • Clear skies
Temperature
12°C / 54°F
Dewpoint
C / 41°F
Humidity
63%
Altimeter
29.62" Hg
Pressure
1002.92 hPa